sensor_id;sensor_type;location;lat;lon;timestamp;temperature;humidity
19646;DHT22;9971;52.446;13.452;2023-07-30T00:02:19;18.60;99.90
19646;DHT22;9971;52.446;13.452;2023-07-30T00:07:25;18.60;99.90
19646;DHT22;9971;52.446;13.452;2023-07-30T00:12:28;18.50;99.90
19646;DHT22;9971;52.446;13.452;2023-07-30T00:17:31;18.50;99.90
19646;DHT22;9971;52.446;13.452;2023-07-30T00:22:34;18.40;99.90
19646;DHT22;9971;52.446;13.452;2023-07-30T00:27:38;18.40;99.90
19646;DHT22;9971;52.446;13.452;2023-07-30T00:32:42;18.40;99.90
19646;DHT22;9971;52.446;13.452;2023-07-30T00:37:52;18.30;99.90
19646;DHT22;9971;52.446;13.452;2023-07-30T00:42:54;18.20;99.90
19646;DHT22;9971;52.446;13.452;2023-07-30T00:47:56;18.20;99.90
19646;DHT22;9971;52.446;13.452;2023-07-30T00:53:03;18.10;99.90
19646;DHT22;9971;52.446;13.452;2023-07-30T00:58:06;18.00;99.90
19646;DHT22;9971;52.446;13.452;2023-07-30T01:03:08;18.00;99.90
19646;DHT22;9971;52.446;13.452;2023-07-30T01:08:12;18.00;99.90
19646;DHT22;9971;52.446;13.452;2023-07-30T01:13:14;17.90;99.90
19646;DHT22;9971;52.446;13.452;2023-07-30T01:18:17;17.90;99.90
19646;DHT22;9971;52.446;13.452;2023-07-30T01:23:21;17.90;99.90
19646;DHT22;9971;52.446;13.452;2023-07-30T01:28:23;17.80;99.90
19646;DHT22;9971;52.446;13.452;2023-07-30T01:33:25;17.80;99.90
19646;DHT22;9971;52.446;13.452;2023-07-30T01:38:27;17.70;99.90
19646;DHT22;9971;52.446;13.452;2023-07-30T01:43:30;17.50;99.90
19646;DHT22;9971;52.446;13.452;2023-07-30T01:48:33;17.50;99.90
19646;DHT22;9971;52.446;13.452;2023-07-30T01:53:35;17.50;99.90
19646;DHT22;9971;52.446;13.452;2023-07-30T01:58:38;17.50;99.90
19646;DHT22;9971;52.446;13.452;2023-07-30T02:03:40;17.50;99.90
19646;DHT22;9971;52.446;13.452;2023-07-30T02:08:43;17.50;99.90
19646;DHT22;9971;52.446;13.452;2023-07-30T02:13:46;17.40;99.90
19646;DHT22;9971;52.446;13.452;2023-07-30T02:18:49;17.40;99.90
19646;DHT22;9971;52.446;13.452;2023-07-30T02:23:51;17.30;99.90
19646;DHT22;9971;52.446;13.452;2023-07-30T02:28:54;17.20;99.90
19646;DHT22;9971;52.446;13.452;2023-07-30T02:33:56;17.20;99.90
19646;DHT22;9971;52.446;13.452;2023-07-30T02:38:59;17.00;99.90
19646;DHT22;9971;52.446;13.452;2023-07-30T02:44:01;17.00;99.90
19646;DHT22;9971;52.446;13.452;2023-07-30T02:49:04;17.10;99.90
19646;DHT22;9971;52.446;13.452;2023-07-30T02:54:07;17.10;99.90
19646;DHT22;9971;52.446;13.452;2023-07-30T02:59:08;17.20;99.90
19646;DHT22;9971;52.446;13.452;2023-07-30T03:04:11;17.30;99.90
19646;DHT22;9971;52.446;13.452;2023-07-30T03:09:14;17.30;99.90
19646;DHT22;9971;52.446;13.452;2023-07-30T03:14:17;17.20;99.90
19646;DHT22;9971;52.446;13.452;2023-07-30T03:19:19;17.20;99.90
19646;DHT22;9971;52.446;13.452;2023-07-30T03:24:22;17.10;99.90
19646;DHT22;9971;52.446;13.452;2023-07-30T03:29:24;17.10;99.90
19646;DHT22;9971;52.446;13.452;2023-07-30T03:34:27;17.10;99.90
19646;DHT22;9971;52.446;13.452;2023-07-30T03:39:29;17.10;99.90
19646;DHT22;9971;52.446;13.452;2023-07-30T03:44:32;17.00;99.90
19646;DHT22;9971;52.446;13.452;2023-07-30T03:49:34;17.00;99.90
19646;DHT22;9971;52.446;13.452;2023-07-30T03:54:37;17.00;99.90
19646;DHT22;9971;52.446;13.452;2023-07-30T03:59:39;17.00;99.90
19646;DHT22;9971;52.446;13.452;2023-07-30T04:04:42;17.10;99.90
19646;DHT22;9971;52.446;13.452;2023-07-30T04:09:46;17.20;99.90
19646;DHT22;9971;52.446;13.452;2023-07-30T04:14:49;17.10;99.90
19646;DHT22;9971;52.446;13.452;2023-07-30T04:19:51;17.20;99.90
19646;DHT22;9971;52.446;13.452;2023-07-30T04:24:54;17.30;99.90
19646;DHT22;9971;52.446;13.452;2023-07-30T04:29:56;17.30;99.90
19646;DHT22;9971;52.446;13.452;2023-07-30T04:34:59;17.40;99.90
19646;DHT22;9971;52.446;13.452;2023-07-30T04:40:01;17.40;99.90
19646;DHT22;9971;52.446;13.452;2023-07-30T04:45:04;17.40;99.90
19646;DHT22;9971;52.446;13.452;2023-07-30T04:50:07;17.50;99.90
19646;DHT22;9971;52.446;13.452;2023-07-30T04:55:09;17.50;99.90
19646;DHT22;9971;52.446;13.452;2023-07-30T05:00:12;17.60;99.90
19646;DHT22;9971;52.446;13.452;2023-07-30T05:05:15;17.70;99.90
19646;DHT22;9971;52.446;13.452;2023-07-30T05:10:18;17.80;99.90
19646;DHT22;9971;52.446;13.452;2023-07-30T05:15:21;17.80;99.90
19646;DHT22;9971;52.446;13.452;2023-07-30T05:20:23;17.90;99.90
19646;DHT22;9971;52.446;13.452;2023-07-30T05:25:26;18.00;99.90
19646;DHT22;9971;52.446;13.452;2023-07-30T05:30:29;18.10;99.90
19646;DHT22;9971;52.446;13.452;2023-07-30T05:35:31;18.20;99.90
19646;DHT22;9971;52.446;13.452;2023-07-30T05:40:34;18.40;99.90
19646;DHT22;9971;52.446;13.452;2023-07-30T05:45:36;18.50;99.90
19646;DHT22;9971;52.446;13.452;2023-07-30T05:50:38;18.60;99.90
19646;DHT22;9971;52.446;13.452;2023-07-30T05:55:40;18.70;99.90
19646;DHT22;9971;52.446;13.452;2023-07-30T06:00:42;18.80;99.90
19646;DHT22;9971;52.446;13.452;2023-07-30T06:05:45;18.90;99.90
19646;DHT22;9971;52.446;13.452;2023-07-30T06:10:48;19.00;99.90
19646;DHT22;9971;52.446;13.452;2023-07-30T06:15:51;19.10;99.90
19646;DHT22;9971;52.446;13.452;2023-07-30T06:20:53;19.30;99.90
19646;DHT22;9971;52.446;13.452;2023-07-30T06:25:57;19.50;99.90
19646;DHT22;9971;52.446;13.452;2023-07-30T06:31:01;19.60;99.90
19646;DHT22;9971;52.446;13.452;2023-07-30T06:36:03;19.80;99.90
19646;DHT22;9971;52.446;13.452;2023-07-30T06:41:10;19.90;99.90
19646;DHT22;9971;52.446;13.452;2023-07-30T06:46:12;20.10;99.90
19646;DHT22;9971;52.446;13.452;2023-07-30T06:51:17;20.10;99.90
19646;DHT22;9971;52.446;13.452;2023-07-30T06:56:17;20.30;99.90
19646;DHT22;9971;52.446;13.452;2023-07-30T07:01:19;20.50;99.90
19646;DHT22;9971;52.446;13.452;2023-07-30T07:06:22;20.50;99.90
19646;DHT22;9971;52.446;13.452;2023-07-30T07:11:24;20.50;99.90
19646;DHT22;9971;52.446;13.452;2023-07-30T07:16:27;20.50;99.90
19646;DHT22;9971;52.446;13.452;2023-07-30T07:21:33;20.60;99.90
19646;DHT22;9971;52.446;13.452;2023-07-30T07:26:35;20.70;99.90
19646;DHT22;9971;52.446;13.452;2023-07-30T07:31:38;20.80;99.90
19646;DHT22;9971;52.446;13.452;2023-07-30T07:36:40;20.90;99.90
19646;DHT22;9971;52.446;13.452;2023-07-30T07:41:43;20.90;99.90
19646;DHT22;9971;52.446;13.452;2023-07-30T07:46:45;21.00;99.90
19646;DHT22;9971;52.446;13.452;2023-07-30T07:51:49;21.20;99.90
19646;DHT22;9971;52.446;13.452;2023-07-30T07:56:51;21.30;99.90
19646;DHT22;9971;52.446;13.452;2023-07-30T08:01:54;21.50;99.90
19646;DHT22;9971;52.446;13.452;2023-07-30T08:06:57;21.60;99.90
19646;DHT22;9971;52.446;13.452;2023-07-30T08:11:59;21.70;99.90
19646;DHT22;9971;52.446;13.452;2023-07-30T08:17:02;22.00;99.90
19646;DHT22;9971;52.446;13.452;2023-07-30T08:22:04;22.30;99.90
19646;DHT22;9971;52.446;13.452;2023-07-30T08:27:07;22.50;99.90
19646;DHT22;9971;52.446;13.452;2023-07-30T08:32:10;22.60;99.90
19646;DHT22;9971;52.446;13.452;2023-07-30T08:37:14;22.90;99.90
19646;DHT22;9971;52.446;13.452;2023-07-30T08:42:19;23.20;99.90
19646;DHT22;9971;52.446;13.452;2023-07-30T08:47:21;23.30;99.90
19646;DHT22;9971;52.446;13.452;2023-07-30T08:52:23;23.50;99.90
19646;DHT22;9971;52.446;13.452;2023-07-30T08:57:27;23.50;99.90
19646;DHT22;9971;52.446;13.452;2023-07-30T09:02:33;23.40;99.90
19646;DHT22;9971;52.446;13.452;2023-07-30T09:07:33;23.70;99.90
19646;DHT22;9971;52.446;13.452;2023-07-30T09:12:36;24.00;99.90
19646;DHT22;9971;52.446;13.452;2023-07-30T09:17:39;24.20;99.90
19646;DHT22;9971;52.446;13.452;2023-07-30T09:22:42;24.40;99.90
19646;DHT22;9971;52.446;13.452;2023-07-30T09:27:47;24.20;99.90
19646;DHT22;9971;52.446;13.452;2023-07-30T09:32:50;24.00;99.90
19646;DHT22;9971;52.446;13.452;2023-07-30T09:37:58;23.90;99.90
19646;DHT22;9971;52.446;13.452;2023-07-30T09:43:08;24.20;99.90
19646;DHT22;9971;52.446;13.452;2023-07-30T09:48:11;24.00;99.90
19646;DHT22;9971;52.446;13.452;2023-07-30T09:53:13;23.90;99.90
19646;DHT22;9971;52.446;13.452;2023-07-30T09:58:15;23.90;99.90
19646;DHT22;9971;52.446;13.452;2023-07-30T10:03:18;24.10;99.90
19646;DHT22;9971;52.446;13.452;2023-07-30T10:08:21;24.40;99.90
19646;DHT22;9971;52.446;13.452;2023-07-30T10:13:22;24.50;99.90
19646;DHT22;9971;52.446;13.452;2023-07-30T10:18:37;24.70;99.90
19646;DHT22;9971;52.446;13.452;2023-07-30T10:23:46;25.00;99.90
19646;DHT22;9971;52.446;13.452;2023-07-30T10:28:47;25.10;99.90
19646;DHT22;9971;52.446;13.452;2023-07-30T10:33:51;25.20;99.90
19646;DHT22;9971;52.446;13.452;2023-07-30T10:38:52;25.30;99.90
19646;DHT22;9971;52.446;13.452;2023-07-30T10:43:56;25.40;99.90
19646;DHT22;9971;52.446;13.452;2023-07-30T10:48:58;25.30;99.90
19646;DHT22;9971;52.446;13.452;2023-07-30T10:54:02;25.70;99.90
19646;DHT22;9971;52.446;13.452;2023-07-30T10:59:05;26.10;99.90
19646;DHT22;9971;52.446;13.452;2023-07-30T11:04:11;26.10;99.90
19646;DHT22;9971;52.446;13.452;2023-07-30T11:09:18;26.40;99.90
19646;DHT22;9971;52.446;13.452;2023-07-30T11:14:22;26.20;99.90
19646;DHT22;9971;52.446;13.452;2023-07-30T11:19:24;26.20;99.90
19646;DHT22;9971;52.446;13.452;2023-07-30T11:24:34;26.10;99.90
19646;DHT22;9971;52.446;13.452;2023-07-30T11:29:36;26.50;99.90
19646;DHT22;9971;52.446;13.452;2023-07-30T11:34:38;26.50;99.50
19646;DHT22;9971;52.446;13.452;2023-07-30T11:39:40;26.60;98.00
19646;DHT22;9971;52.446;13.452;2023-07-30T11:44:43;26.40;97.90
19646;DHT22;9971;52.446;13.452;2023-07-30T11:49:54;26.40;98.50
19646;DHT22;9971;52.446;13.452;2023-07-30T11:54:47;26.40;98.10
19646;DHT22;9971;52.446;13.452;2023-07-30T11:59:50;26.30;97.70
19646;DHT22;9971;52.446;13.452;2023-07-30T12:04:53;26.30;96.50
19646;DHT22;9971;52.446;13.452;2023-07-30T12:10:05;26.30;97.00
19646;DHT22;9971;52.446;13.452;2023-07-30T12:14:59;26.20;96.50
19646;DHT22;9971;52.446;13.452;2023-07-30T12:20:02;26.20;95.60
19646;DHT22;9971;52.446;13.452;2023-07-30T12:25:04;26.20;96.00
19646;DHT22;9971;52.446;13.452;2023-07-30T12:30:07;26.10;95.90
19646;DHT22;9971;52.446;13.452;2023-07-30T12:35:10;26.10;95.80
19646;DHT22;9971;52.446;13.452;2023-07-30T12:40:12;26.10;96.20
19646;DHT22;9971;52.446;13.452;2023-07-30T12:45:14;26.00;94.80
19646;DHT22;9971;52.446;13.452;2023-07-30T12:50:17;26.00;94.20
19646;DHT22;9971;52.446;13.452;2023-07-30T12:55:19;26.00;94.60
19646;DHT22;9971;52.446;13.452;2023-07-30T13:00:22;26.00;94.60
19646;DHT22;9971;52.446;13.452;2023-07-30T13:05:24;26.00;94.80
19646;DHT22;9971;52.446;13.452;2023-07-30T13:10:29;26.00;94.10
19646;DHT22;9971;52.446;13.452;2023-07-30T13:31:37;25.90;92.80
19646;DHT22;9971;52.446;13.452;2023-07-30T13:36:41;26.00;93.40
19646;DHT22;9971;52.446;13.452;2023-07-30T13:41:44;26.00;93.30
19646;DHT22;9971;52.446;13.452;2023-07-30T13:46:46;25.90;92.30
19646;DHT22;9971;52.446;13.452;2023-07-30T13:51:48;25.90;92.70
19646;DHT22;9971;52.446;13.452;2023-07-30T13:56:51;25.90;92.80
19646;DHT22;9971;52.446;13.452;2023-07-30T14:01:53;25.90;92.10
19646;DHT22;9971;52.446;13.452;2023-07-30T14:06:56;25.80;91.40
19646;DHT22;9971;52.446;13.452;2023-07-30T14:11:58;25.80;91.70
19646;DHT22;9971;52.446;13.452;2023-07-30T14:17:00;25.80;90.90
19646;DHT22;9971;52.446;13.452;2023-07-30T14:22:03;25.80;90.90
19646;DHT22;9971;52.446;13.452;2023-07-30T14:27:05;25.80;90.60
19646;DHT22;9971;52.446;13.452;2023-07-30T14:32:08;25.80;90.30
19646;DHT22;9971;52.446;13.452;2023-07-30T14:37:10;25.80;89.90
19646;DHT22;9971;52.446;13.452;2023-07-30T14:42:13;25.70;90.80
19646;DHT22;9971;52.446;13.452;2023-07-30T14:47:15;25.70;92.30
19646;DHT22;9971;52.446;13.452;2023-07-30T14:52:17;25.70;96.20
19646;DHT22;9971;52.446;13.452;2023-07-30T14:57:20;25.70;99.50
19646;DHT22;9971;52.446;13.452;2023-07-30T15:02:23;25.60;99.90
19646;DHT22;9971;52.446;13.452;2023-07-30T15:07:25;25.60;99.90
19646;DHT22;9971;52.446;13.452;2023-07-30T15:12:28;25.60;99.90
19646;DHT22;9971;52.446;13.452;2023-07-30T15:17:31;25.60;99.90
19646;DHT22;9971;52.446;13.452;2023-07-30T15:22:33;25.60;99.90
19646;DHT22;9971;52.446;13.452;2023-07-30T15:27:35;25.70;99.90
19646;DHT22;9971;52.446;13.452;2023-07-30T15:32:40;25.70;99.90
19646;DHT22;9971;52.446;13.452;2023-07-30T15:37:40;25.70;99.90
19646;DHT22;9971;52.446;13.452;2023-07-30T15:42:43;25.80;99.90
19646;DHT22;9971;52.446;13.452;2023-07-30T15:47:45;25.80;99.90
19646;DHT22;9971;52.446;13.452;2023-07-30T15:52:48;25.90;99.90
19646;DHT22;9971;52.446;13.452;2023-07-30T15:57:50;25.90;99.90
19646;DHT22;9971;52.446;13.452;2023-07-30T16:02:53;26.00;99.90
19646;DHT22;9971;52.446;13.452;2023-07-30T16:07:55;26.00;99.90
19646;DHT22;9971;52.446;13.452;2023-07-30T16:12:57;26.00;99.90
19646;DHT22;9971;52.446;13.452;2023-07-30T16:17:59;26.00;99.90
19646;DHT22;9971;52.446;13.452;2023-07-30T16:23:02;26.00;99.90
19646;DHT22;9971;52.446;13.452;2023-07-30T16:28:04;26.00;99.90
19646;DHT22;9971;52.446;13.452;2023-07-30T16:33:08;26.10;99.90
19646;DHT22;9971;52.446;13.452;2023-07-30T16:38:10;26.10;99.90
19646;DHT22;9971;52.446;13.452;2023-07-30T16:43:12;26.10;99.90
19646;DHT22;9971;52.446;13.452;2023-07-30T16:48:15;26.10;99.90
19646;DHT22;9971;52.446;13.452;2023-07-30T16:53:17;26.10;99.90
19646;DHT22;9971;52.446;13.452;2023-07-30T16:58:19;26.10;99.90
19646;DHT22;9971;52.446;13.452;2023-07-30T17:03:21;26.00;99.90
19646;DHT22;9971;52.446;13.452;2023-07-30T17:08:24;26.10;99.90
19646;DHT22;9971;52.446;13.452;2023-07-30T17:13:26;26.00;99.90
19646;DHT22;9971;52.446;13.452;2023-07-30T17:18:28;26.00;99.90
19646;DHT22;9971;52.446;13.452;2023-07-30T17:23:31;25.90;99.90
19646;DHT22;9971;52.446;13.452;2023-07-30T17:28:33;25.90;99.90
19646;DHT22;9971;52.446;13.452;2023-07-30T17:33:36;25.90;99.90
19646;DHT22;9971;52.446;13.452;2023-07-30T17:38:39;25.90;99.90
19646;DHT22;9971;52.446;13.452;2023-07-30T17:43:41;26.00;99.90
19646;DHT22;9971;52.446;13.452;2023-07-30T17:48:44;26.00;99.90
19646;DHT22;9971;52.446;13.452;2023-07-30T17:53:46;26.00;99.90
19646;DHT22;9971;52.446;13.452;2023-07-30T17:58:48;26.00;99.90
19646;DHT22;9971;52.446;13.452;2023-07-30T18:03:50;26.00;99.90
19646;DHT22;9971;52.446;13.452;2023-07-30T18:08:53;26.10;99.90
19646;DHT22;9971;52.446;13.452;2023-07-30T18:13:55;26.10;99.90
19646;DHT22;9971;52.446;13.452;2023-07-30T18:18:58;26.10;99.90
19646;DHT22;9971;52.446;13.452;2023-07-30T18:24:00;26.10;99.90
19646;DHT22;9971;52.446;13.452;2023-07-30T18:29:02;26.10;99.90
19646;DHT22;9971;52.446;13.452;2023-07-30T18:34:05;26.10;99.90
19646;DHT22;9971;52.446;13.452;2023-07-30T18:39:08;26.10;99.90
19646;DHT22;9971;52.446;13.452;2023-07-30T18:44:09;26.20;99.90
19646;DHT22;9971;52.446;13.452;2023-07-30T18:49:12;26.20;99.90
19646;DHT22;9971;52.446;13.452;2023-07-30T18:54:14;26.20;99.90
19646;DHT22;9971;52.446;13.452;2023-07-30T18:59:16;26.20;99.90
19646;DHT22;9971;52.446;13.452;2023-07-30T19:04:19;26.30;99.90
19646;DHT22;9971;52.446;13.452;2023-07-30T19:09:21;26.30;99.90
19646;DHT22;9971;52.446;13.452;2023-07-30T19:14:23;26.30;99.90
19646;DHT22;9971;52.446;13.452;2023-07-30T19:19:26;26.30;99.90
19646;DHT22;9971;52.446;13.452;2023-07-30T19:24:28;26.40;99.90
19646;DHT22;9971;52.446;13.452;2023-07-30T19:29:30;26.40;99.90
19646;DHT22;9971;52.446;13.452;2023-07-30T19:34:34;26.40;99.90
19646;DHT22;9971;52.446;13.452;2023-07-30T19:39:36;26.40;99.90
19646;DHT22;9971;52.446;13.452;2023-07-30T19:44:39;26.40;99.90
19646;DHT22;9971;52.446;13.452;2023-07-30T19:49:41;26.40;99.90
19646;DHT22;9971;52.446;13.452;2023-07-30T19:54:44;26.40;99.90
19646;DHT22;9971;52.446;13.452;2023-07-30T19:59:46;26.40;99.90
19646;DHT22;9971;52.446;13.452;2023-07-30T20:04:49;26.30;99.90
19646;DHT22;9971;52.446;13.452;2023-07-30T20:09:51;26.40;99.90
19646;DHT22;9971;52.446;13.452;2023-07-30T20:14:53;26.30;99.90
19646;DHT22;9971;52.446;13.452;2023-07-30T20:19:55;26.40;99.90
19646;DHT22;9971;52.446;13.452;2023-07-30T20:24:58;26.40;99.90
19646;DHT22;9971;52.446;13.452;2023-07-30T20:30:00;26.40;99.90
19646;DHT22;9971;52.446;13.452;2023-07-30T20:35:03;26.40;99.90
19646;DHT22;9971;52.446;13.452;2023-07-30T20:40:06;26.40;99.90
19646;DHT22;9971;52.446;13.452;2023-07-30T20:45:09;26.50;99.90
19646;DHT22;9971;52.446;13.452;2023-07-30T20:50:11;26.40;99.90
19646;DHT22;9971;52.446;13.452;2023-07-30T20:55:14;26.50;99.90
19646;DHT22;9971;52.446;13.452;2023-07-30T21:00:16;26.50;99.90
19646;DHT22;9971;52.446;13.452;2023-07-30T21:05:18;26.50;99.90
19646;DHT22;9971;52.446;13.452;2023-07-30T21:10:21;26.50;99.90
19646;DHT22;9971;52.446;13.452;2023-07-30T21:15:23;26.50;99.90
19646;DHT22;9971;52.446;13.452;2023-07-30T21:20:26;26.60;99.90
19646;DHT22;9971;52.446;13.452;2023-07-30T21:25:28;26.60;99.90
19646;DHT22;9971;52.446;13.452;2023-07-30T21:30:31;26.60;99.90
19646;DHT22;9971;52.446;13.452;2023-07-30T21:35:33;26.60;99.90
19646;DHT22;9971;52.446;13.452;2023-07-30T21:40:36;26.60;99.90
19646;DHT22;9971;52.446;13.452;2023-07-30T21:45:39;26.70;99.90
19646;DHT22;9971;52.446;13.452;2023-07-30T21:50:41;26.70;99.90
19646;DHT22;9971;52.446;13.452;2023-07-30T21:55:44;26.70;99.90
19646;DHT22;9971;52.446;13.452;2023-07-30T22:00:48;26.70;99.90
19646;DHT22;9971;52.446;13.452;2023-07-30T22:05:50;26.70;99.90
19646;DHT22;9971;52.446;13.452;2023-07-30T22:10:52;26.70;99.90
19646;DHT22;9971;52.446;13.452;2023-07-30T22:15:54;26.70;99.90
19646;DHT22;9971;52.446;13.452;2023-07-30T22:20:56;26.70;99.90
19646;DHT22;9971;52.446;13.452;2023-07-30T22:25:59;26.60;99.90
19646;DHT22;9971;52.446;13.452;2023-07-30T22:31:02;26.60;99.90
19646;DHT22;9971;52.446;13.452;2023-07-30T22:41:25;26.50;99.90
19646;DHT22;9971;52.446;13.452;2023-07-30T22:46:27;26.60;99.90
19646;DHT22;9971;52.446;13.452;2023-07-30T22:51:29;26.60;99.90
19646;DHT22;9971;52.446;13.452;2023-07-30T22:56:32;26.60;99.90
19646;DHT22;9971;52.446;13.452;2023-07-30T23:01:34;26.60;99.90
19646;DHT22;9971;52.446;13.452;2023-07-30T23:06:37;26.60;99.90
19646;DHT22;9971;52.446;13.452;2023-07-30T23:11:39;26.70;99.90
19646;DHT22;9971;52.446;13.452;2023-07-30T23:16:42;26.70;99.90
19646;DHT22;9971;52.446;13.452;2023-07-30T23:21:44;26.70;99.90
19646;DHT22;9971;52.446;13.452;2023-07-30T23:26:47;26.50;99.90
19646;DHT22;9971;52.446;13.452;2023-07-30T23:31:49;26.50;99.90
19646;DHT22;9971;52.446;13.452;2023-07-30T23:36:51;26.50;99.90
19646;DHT22;9971;52.446;13.452;2023-07-30T23:41:54;26.50;99.90
19646;DHT22;9971;52.446;13.452;2023-07-30T23:46:57;26.50;99.90
19646;DHT22;9971;52.446;13.452;2023-07-30T23:52:00;26.50;99.90
19646;DHT22;9971;52.446;13.452;2023-07-30T23:57:02;26.50;99.90
